Norwegian Jade — C6WK7 — position and weather

sailwx.info

Track history (hours):
 
Tides and Currents Weather Stations Pressure Air Temp Water Temp Dewpoint Dewpoint Depression Visibility Wind Speed Wind Dir Waves Ship Positions

Norwegian Jade

Last reported at 2017-May-25 02:30 UTC. Time now 2017-May-25 02:57 UTC.
Position N 50°50' W 006°45'.

Length 294 m; draft 8.5 m.

Type: Passenger vessel. MMSI: 308416000.

Date/timePositionNaut miles runAvg speedWind from/ knotsBaromVisibWave heightAir tempDewpointWater temp
2017-May-25 02:30N 50°50' W 006°45'1320.6
2017-May-25 01:51N 50°41' W 006°29'820.7
2017-May-25 01:28N 50°36' W 006°20'1020.5
2017-May-25 01:00N 50°30' W 006°08'1019.8
2017-May-25 00:30N 50°23' W 005°57'1019.9
2017-May-25 00:00N 50°13' W 005°54'1020.5
2017-May-24 23:30N 50°03' W 005°53'1017.7
2017-May-24 22:58N 49°57' W 005°41'1020.2
2017-May-24 22:29N 49°56' W 005°27'1021.2
2017-May-24 22:00N 49°54' W 005°11'1020.7
2017-May-24 21:30N 49°54' W 004°55'1121.1
2017-May-24 21:00N 49°55' W 004°39'1121.9
2017-May-24 20:30N 49°56' W 004°22'1121.5
2017-May-24 20:00N 49°58' W 004°05'1020.8
2017-May-24 19:30N 49°59' W 003°49'1020.1
2017-May-24 19:00N 50°05' W 003°36'1019.7
2017-May-24 18:30N 50°08' W 003°22'1019.4
2017-May-24 18:00N 50°11' W 003°07'918.9
2017-May-24 17:30N 50°16' W 002°55'917.5
2017-May-24 17:00N 50°20' W 002°43'816.5
2017-May-24 16:30N 50°25' W 002°32'816.0
2017-May-24 16:00N 50°31' W 002°25'4 8.4
2017-May-24 15:31N 50°35' W 002°25'1 2.4
2017-May-24 14:56N 50°34' W 002°26'0 0.0
2017-May-24 14:26N 50°34' W 002°26'0 0.0
2017-May-24 13:29N 50°34' W 002°26'0 0.0
2017-May-24 12:59N 50°34' W 002°26'0 0.0
2017-May-24 12:29N 50°34' W 002°26'0 0.0
2017-May-24 11:59N 50°34' W 002°26'0 0.0
2017-May-24 11:29N 50°34' W 002°26'0 0.0
2017-May-24 10:56N 50°34' W 002°26'0 0.0
2017-May-24 10:29N 50°34' W 002°26'0 0.0
2017-May-24 09:59N 50°34' W 002°26'0 0.0
2017-May-24 09:29N 50°34' W 002°26'0 0.0
2017-May-24 08:59N 50°34' W 002°26'0 0.0
2017-May-24 08:29N 50°34' W 002°26'0 0.0
2017-May-24 07:59N 50°34' W 002°26'0 0.0
2017-May-24 07:26N 50°34' W 002°26'0 0.0
2017-May-24 06:59N 50°34' W 002°26'0 0.0
2017-May-24 06:29N 50°34' W 002°26'0 0.0
2017-May-24 05:59N 50°34' W 002°26'0 0.0
2017-May-24 05:29N 50°34' W 002°26'0 0.3
2017-May-24 05:01N 50°34' W 002°26'3 5.4
2017-May-24 04:30N 50°35' W 002°22'4 6.9
2017-May-24 03:57N 50°32' W 002°19'6 7.2
2017-May-24 03:05N 50°26' W 002°16'1 7.3
2017-May-24 03:00N 50°25' W 002°16'9 7.5
2017-May-24 01:47N 50°16' W 002°13'4 7.4
2017-May-24 01:19N 50°13' W 002°13'4 7.2
2017-May-24 00:41N 50°08' W 002°12'50 7.5
2017-May-23 18:00N 49°18' W 002°18'12 1.0 270 / 91027.0 0.0 17.0 13.0
2017-May-23 06:12N 49°27' W 002°30'211.6
2017-May-23 06:00N 49°25' W 002°29'5 9.3
2017-May-23 05:30N 49°22' W 002°23'11 8.7
2017-May-23 04:13N 49°30' W 002°11'310.0
2017-May-23 03:56N 49°33' W 002°10'6 9.7
2017-May-23 03:21N 49°39' W 002°07'3 9.4
2017-May-23 02:59N 49°42' W 002°06'4 9.0
2017-May-23 02:30N 49°45' W 002°01'4 8.7
2017-May-23 02:00N 49°47' W 001°56'4 8.4
2017-May-23 01:30N 49°49' W 001°50'4 8.8
2017-May-23 01:00N 49°52' W 001°44'5 9.2
2017-May-23 00:30N 49°55' W 001°39'5 9.3
2017-May-23 00:00N 49°59' W 001°36'5 9.2
2017-May-22 23:30N 50°03' W 001°34'5 9.1
2017-May-22 23:00N 50°08' W 001°31'7 9.0
2017-May-22 22:14N 50°14' W 001°28'3 9.4
2017-May-22 21:56N 50°17' W 001°26'4 9.3
2017-May-22 21:30N 50°21' W 001°24'5 9.3
2017-May-22 21:00N 50°24' W 001°19'5 9.6
2017-May-22 20:30N 50°27' W 001°13'5 9.4
2017-May-22 20:00N 50°29' W 001°07'5 9.3
2017-May-22 19:30N 50°32' W 001°01'4 8.9
2017-May-22 19:00N 50°36' W 000°59'5 9.4
2017-May-22 18:30N 50°41' W 000°58'611.1
2017-May-22 18:00N 50°44' W 001°05'2156.4
2017-May-22 18:00N 50°42' W 001°06'815.7 200 / 191017.0 17.0 15.0
2017-May-22 17:30N 50°46' W 001°16'4 8.6
2017-May-22 17:00N 50°50' W 001°19'4 8.5
2017-May-22 16:30N 50°53' W 001°24'1 2.2
2017-May-22 16:00N 50°54' W 001°25'0 0.0
2017-May-22 15:30N 50°54' W 001°25'0 0.0
2017-May-22 15:00N 50°54' W 001°25'0 0.0
2017-May-22 14:00N 50°54' W 001°25'0 0.0
2017-May-22 13:30N 50°54' W 001°25'0 0.0
2017-May-22 13:00N 50°54' W 001°25'0 0.0
2017-May-22 12:30N 50°54' W 001°25'0 0.0
2017-May-22 12:00N 50°54' W 001°25'0 0.0
2017-May-22 11:30N 50°54' W 001°25'0 0.0
2017-May-22 11:00N 50°54' W 001°25'0 0.0
2017-May-22 10:30N 50°54' W 001°25'0 0.0
2017-May-22 10:00N 50°54' W 001°25'0 0.0
2017-May-22 09:30N 50°54' W 001°25'0 0.0
2017-May-22 09:00N 50°54' W 001°25'0 0.0
2017-May-22 08:30N 50°54' W 001°25'0 0.0
2017-May-22 08:00N 50°54' W 001°25'0 0.0
2017-May-22 07:30N 50°54' W 001°25'0 0.0
2017-May-22 07:00N 50°54' W 001°25'0 0.0
2017-May-22 06:30N 50°54' W 001°25'0 0.0
2017-May-22 05:54N 50°54' W 001°25'0 0.0
2017-May-22 05:30N 50°54' W 001°25'0 0.1
2017-May-22 05:00N 50°54' W 001°25'2 4.7
2017-May-22 04:31N 50°52' W 001°23'5 9.9
2017-May-22 04:00N 50°48' W 001°18'5 9.1
2017-May-22 03:31N 50°46' W 001°11'917.1
2017-May-22 03:00N 50°43' W 000°59'714.3
2017-May-22 02:30N 50°38' W 000°51'1020.4
2017-May-22 02:00N 50°34' W 000°36'1121.8
2017-May-22 01:30N 50°33' W 000°19'1121.7
2017-May-22 01:00N 50°32' W 000°02'1122.1
2017-May-22 00:30N 50°35' E 000°15'1122.2
2017-May-22 00:00N 50°38' E 000°32'1121.6
2017-May-21 23:30N 50°44' E 000°47'1121.0
2017-May-21 23:00N 50°50' E 001°00'1020.6
2017-May-21 22:30N 50°57' E 001°12'1019.9
2017-May-21 22:00N 51°03' E 001°24'1019.4
2017-May-21 21:30N 51°09' E 001°36'1019.2
2017-May-21 21:00N 51°16' E 001°47'1020.0
2017-May-21 20:30N 51°25' E 001°55'1020.5
2017-May-21 20:01N 51°33' E 002°05'1020.5
2017-May-21 19:30N 51°40' E 002°18'1221.2
2017-May-21 18:56N 51°50' E 002°29'2221.0
2017-May-21 17:53N 52°11' E 002°37'922.5
2017-May-21 17:29N 52°20' E 002°38'1122.5
2017-May-21 17:00N 52°31' E 002°38'1122.3
2017-May-21 16:30N 52°42' E 002°38'1122.1
2017-May-21 16:00N 52°53' E 002°38'1121.8
2017-May-21 15:30N 53°04' E 002°39'1121.1
2017-May-21 15:00N 53°14' E 002°43'1120.9
2017-May-21 14:28N 53°25' E 002°50'27620.8
2017-May-21 01:12N 57°58' E 003°53'1720.3
2017-May-21 00:22N 58°15' E 003°55'821.9
2017-May-21 00:00N 58°23' E 003°56'1422.6
2017-May-20 23:23N 58°37' E 003°57'1122.0
2017-May-20 22:54N 58°48' E 003°58'1122.0
2017-May-20 22:25N 58°58' E 003°60'1122.5
2017-May-20 21:57N 59°09' E 004°00'8621.8
2017-May-20 18:01N 60°34' E 004°22'022.6
2017-May-20 18:00N 60°35' E 004°23'1121.2
2017-May-20 17:30N 60°43' E 004°35'713.9
2017-May-20 17:00N 60°42' E 004°49'918.0
2017-May-20 16:30N 60°34' E 004°55'1019.7
2017-May-20 16:00N 60°25' E 005°04'510.8
2017-May-20 15:30N 60°24' E 005°15'2 4.3
2017-May-20 14:59N 60°24' E 005°19'0 0.0
2017-May-20 13:59N 60°24' E 005°19'0 0.0
2017-May-20 13:29N 60°24' E 005°19'0 0.0
2017-May-20 12:59N 60°24' E 005°19'0 0.0
2017-May-20 12:29N 60°24' E 005°19'0 0.0
2017-May-20 11:59N 60°24' E 005°19'0 0.0
2017-May-20 11:29N 60°24' E 005°19'0 0.0
2017-May-20 10:59N 60°24' E 005°19'0 0.0
2017-May-20 10:29N 60°24' E 005°19'0 0.0
2017-May-20 09:59N 60°24' E 005°19'0 0.0
2017-May-20 09:29N 60°24' E 005°19'0 0.0
2017-May-20 08:59N 60°24' E 005°19'0 0.0
2017-May-20 08:29N 60°24' E 005°19'0 0.0
2017-May-20 07:59N 60°24' E 005°19'0 0.0
2017-May-20 07:29N 60°24' E 005°19'0 0.0
2017-May-20 06:59N 60°24' E 005°19'0 0.0
2017-May-20 06:29N 60°24' E 005°19'1 2.4
2017-May-20 06:00N 60°24' E 005°17'5 9.6
2017-May-20 05:30N 60°24' E 005°07'815.3
2017-May-20 05:00N 60°30' E 004°58'917.5
2017-May-20 04:30N 60°39' E 004°52'714.2
2017-May-20 04:00N 60°44' E 004°43'612.1
2017-May-20 03:30N 60°47' E 004°31'713.9
2017-May-20 02:59N 60°53' E 004°24'714.6
2017-May-20 02:30N 60°59' E 004°18'3815.0
2017-May-20 00:00N 61°36' E 004°00'4716.8 020 / 181016.0 5.4 12.0 10.0
2017-May-19 21:11N 62°19' E 004°41'420.8
2017-May-19 21:00N 62°21' E 004°47'1020.7
2017-May-19 20:30N 62°24' E 005°09'1020.8
2017-May-19 20:00N 62°28' E 005°30'918.8
2017-May-19 19:30N 62°28' E 005°50'713.4
2017-May-19 19:00N 62°25' E 006°03'815.7
2017-May-19 18:30N 62°24' E 006°19'917.9
2017-May-19 18:00N 62°27' E 006°38'816.2
2017-May-19 17:29N 62°25' E 006°55'816.5
2017-May-19 17:00N 62°17' E 007°01'11930.2
2017-May-19 17:00N 62°06' E 007°00'3 6.3 040 / 141016.010.8 19.0 11.0
2017-May-19 16:29N 62°09' E 006°59'4 8.7
2017-May-19 16:00N 62°06' E 007°05'3 6.7
2017-May-19 15:30N 62°06' E 007°12'0 0.0
2017-May-19 14:58N 62°06' E 007°12'0 0.0
2017-May-19 13:58N 62°06' E 007°12'0 0.0
2017-May-19 13:28N 62°06' E 007°12'0 0.0
2017-May-19 12:58N 62°06' E 007°12'0 0.0
2017-May-19 12:28N 62°06' E 007°12'0 0.0
2017-May-19 11:58N 62°06' E 007°12'0 0.0
2017-May-19 11:28N 62°06' E 007°12'0 0.0
2017-May-19 10:58N 62°06' E 007°12'0 0.0
2017-May-19 10:28N 62°06' E 007°12'0 0.0
2017-May-19 09:58N 62°06' E 007°12'0 0.0
2017-May-19 09:28N 62°06' E 007°12'0 0.0
2017-May-19 08:58N 62°06' E 007°12'0 0.0
2017-May-19 08:28N 62°06' E 007°12'0 0.0
2017-May-19 07:58N 62°06' E 007°12'0 0.0
2017-May-19 07:28N 62°06' E 007°12'0 0.0
2017-May-19 06:58N 62°06' E 007°12'0 0.0
2017-May-19 06:28N 62°06' E 007°12'0 0.0
2017-May-19 05:58N 62°06' E 007°12'0 0.0
2017-May-19 05:30N 62°06' E 007°12'0 0.0
2017-May-19 05:00N 62°06' E 007°12'0 0.1
2017-May-19 04:30N 62°06' E 007°12'2 3.7
2017-May-19 04:00N 62°07' E 007°08'5 9.4
2017-May-19 03:30N 62°06' E 006°58'3 5.4
2017-May-19 03:00N 62°09' E 006°59'3 6.1
2017-May-19 02:30N 62°12' E 007°02'3 6.5
2017-May-19 02:00N 62°15' E 007°01'3 6.3
2017-May-19 01:30N 62°18' E 006°60'3 6.4
2017-May-19 01:00N 62°21' E 006°56'3 6.4
2017-May-19 00:30N 62°24' E 006°56'3 6.0
2017-May-19 00:00N 62°26' E 006°52'3 6.5
2017-May-18 23:30N 62°27' E 006°45'3 6.2
2017-May-18 22:59N 62°27' E 006°38'3 6.5
2017-May-18 22:30N 62°26' E 006°32'3 6.5
2017-May-18 22:00N 62°24' E 006°25'3 6.3
2017-May-18 21:30N 62°23' E 006°19'3 6.3
2017-May-18 21:00N 62°23' E 006°12'3 6.2
2017-May-18 20:30N 62°23' E 006°06'3 6.4
2017-May-18 20:00N 62°26' E 006°02'3 5.5
2017-May-18 19:30N 62°27' E 006°07'2 3.0
2017-May-18 18:59N 62°28' E 006°09'0 0.0
2017-May-18 18:29N 62°28' E 006°09'0 0.0
2017-May-18 17:59N 62°28' E 006°09'0 0.0
2017-May-18 17:29N 62°28' E 006°09'0 0.0
2017-May-18 16:53N 62°28' E 006°09'0 0.0
2017-May-18 16:29N 62°28' E 006°09'0 0.0
2017-May-18 15:59N 62°28' E 006°09'0 0.0
2017-May-18 15:29N 62°28' E 006°09'0 0.0
2017-May-18 14:59N 62°28' E 006°09'0 0.0
2017-May-18 13:59N 62°28' E 006°09'0 0.0
2017-May-18 13:29N 62°28' E 006°09'0 0.0
2017-May-18 12:59N 62°28' E 006°09'0 0.0
2017-May-18 12:29N 62°28' E 006°09'0 0.0
2017-May-18 11:59N 62°28' E 006°09'0 0.0
2017-May-18 11:29N 62°28' E 006°09'0 0.0
2017-May-18 10:59N 62°28' E 006°09'0 0.0
2017-May-18 10:26N 62°28' E 006°09'0 0.0
2017-May-18 09:59N 62°28' E 006°09'0 0.0
2017-May-18 09:29N 62°28' E 006°09'0 0.0
2017-May-18 08:59N 62°28' E 006°09'0 0.0
2017-May-18 08:29N 62°28' E 006°09'0 0.0
2017-May-18 07:59N 62°28' E 006°09'0 0.0
2017-May-18 07:29N 62°28' E 006°09'0 0.0
2017-May-18 06:59N 62°28' E 006°09'0 0.0
2017-May-18 06:29N 62°28' E 006°09'0 0.0
2017-May-18 05:59N 62°28' E 006°09'0 0.7
2017-May-18 05:20N 62°28' E 006°10'2 4.6
2017-May-18 05:00N 62°27' E 006°08'815.7
2017-May-18 04:30N 62°28' E 005°51'816.9
2017-May-18 03:59N 62°30' E 005°33'917.7
2017-May-18 03:30N 62°26' E 005°17'816.9
2017-May-18 03:00N 62°20' E 005°04'816.7
2017-May-18 02:30N 62°13' E 004°55'917.0
2017-May-18 02:00N 62°06' E 004°46'816.7
2017-May-18 01:30N 61°58' E 004°38'917.2
2017-May-18 01:00N 61°50' E 004°33'917.8
2017-May-18 00:30N 61°42' E 004°25'917.8
2017-May-18 00:00N 61°33' E 004°24'9678.8
2017-May-18 00:00N 61°24' E 004°24'0 0.4 130 / 171013.0 5.4 10.0 10.0
2017-May-17 23:30N 61°24' E 004°24'816.7
2017-May-17 23:00N 61°16' E 004°30'816.6
2017-May-17 22:30N 61°15' E 004°47'714.4
2017-May-17 22:00N 61°12' E 005°01'611.5
2017-May-17 21:30N 61°08' E 005°09'816.7
2017-May-17 21:00N 61°03' E 005°24'816.5
2017-May-17 20:30N 61°07' E 005°40'816.7
2017-May-17 20:00N 61°08' E 005°57'817.0
2017-May-17 19:30N 61°07' E 006°14'1014.0
2017-May-17 18:46N 61°10' E 006°35'310.3
2017-May-17 18:30N 61°11' E 006°40'815.5
2017-May-17 18:00N 61°08' E 006°54'611.3
2017-May-17 17:30N 61°07' E 007°06'816.1
2017-May-17 17:00N 61°09' E 007°22'611.4
2017-May-17 16:30N 61°15' E 007°21'510.3
2017-May-17 16:00N 61°20' E 007°22'714.8
2017-May-17 15:30N 61°27' E 007°30'4 7.2
2017-May-17 15:00N 61°29' E 007°35'0 0.0
2017-May-17 14:00N 61°29' E 007°35'0 0.0
2017-May-17 13:27N 61°29' E 007°35'0 0.0
2017-May-17 13:00N 61°29' E 007°35'0 0.0
2017-May-17 12:30N 61°29' E 007°35'0 0.0
2017-May-17 12:00N 61°29' E 007°35'0 0.0
2017-May-17 11:30N 61°29' E 007°35'0 0.0
2017-May-17 11:00N 61°29' E 007°35'0 0.0
2017-May-17 10:30N 61°29' E 007°35'0 0.0
2017-May-17 10:00N 61°29' E 007°35'0 0.0
2017-May-17 09:30N 61°29' E 007°35'0 0.0
2017-May-17 09:00N 61°29' E 007°35'0 0.0
2017-May-17 07:48N 61°29' E 007°35'0 0.0
2017-May-17 07:30N 61°29' E 007°35'0 0.0
2017-May-17 07:00N 61°29' E 007°35'0 0.0
2017-May-17 06:30N 61°29' E 007°35'0 0.0
2017-May-17 06:00N 61°29' E 007°35'0 0.2
2017-May-17 05:30N 61°29' E 007°35'4 8.1
2017-May-17 05:00N 61°26' E 007°29'714.3
2017-May-17 04:30N 61°20' E 007°21'510.6
2017-May-17 04:00N 61°15' E 007°21'611.4
2017-May-17 03:31N 61°09' E 007°21'712.8
2017-May-17 03:00N 61°08' E 007°08'611.7
2017-May-17 02:30N 61°07' E 006°56'713.8
2017-May-17 02:00N 61°10' E 006°44'712.9
2017-May-17 01:30N 61°07' E 006°32'715.0
2017-May-17 01:00N 61°07' E 006°16'815.8
2017-May-17 00:30N 61°08' E 006°00'815.5
2017-May-17 00:00N 61°08' E 005°44'815.8
2017-May-16 23:30N 61°04' E 005°30'714.4
2017-May-16 23:00N 61°05' E 005°15'815.2
2017-May-16 22:30N 61°03' E 004°59'816.8
2017-May-16 22:00N 60°59' E 004°45'918.1
2017-May-16 21:30N 60°51' E 004°35'917.8
2017-May-16 21:00N 60°43' E 004°26'1020.9
2017-May-16 20:30N 60°33' E 004°26'1020.8
2017-May-16 20:00N 60°23' E 004°26'4723.3
2017-May-16 18:00N 59°36' E 004°36'2516.8 160 / 241018.0 5.4 11.410.614.0
2017-May-16 16:29N 59°11' E 004°48'1020.7
2017-May-16 16:00N 59°05' E 005°03'918.4
2017-May-16 15:30N 59°06' E 005°21'612.2
2017-May-16 15:00N 59°05' E 005°33'9 8.5
2017-May-16 14:00N 58°58' E 005°44'0 0.0
2017-May-16 13:30N 58°58' E 005°44'0 0.0
2017-May-16 13:00N 58°58' E 005°44'0 0.0
2017-May-16 12:30N 58°58' E 005°44'0 0.0
2017-May-16 12:00N 58°58' E 005°44'0 0.0
2017-May-16 11:30N 58°58' E 005°44'0 0.0
2017-May-16 11:00N 58°58' E 005°44'0 0.0
2017-May-16 10:30N 58°58' E 005°44'0 0.0
2017-May-16 10:00N 58°58' E 005°44'0 0.0
2017-May-16 09:30N 58°58' E 005°44'0 0.0
2017-May-16 09:00N 58°58' E 005°44'0 0.0
2017-May-16 08:30N 58°58' E 005°44'0 0.0
2017-May-16 08:00N 58°58' E 005°44'0 0.0
2017-May-16 07:30N 58°58' E 005°44'0 0.0
2017-May-16 07:00N 58°58' E 005°44'0 0.0
2017-May-16 06:30N 58°58' E 005°44'0 0.0
2017-May-16 06:00N 58°58' E 005°44'0 0.0
2017-May-16 05:30N 58°58' E 005°44'0 1.0
2017-May-16 05:00N 58°59' E 005°43'5 9.9
2017-May-16 04:30N 59°02' E 005°36'5 9.5
2017-May-16 04:01N 58°58' E 005°33'713.9
2017-May-16 03:30N 58°51' E 005°30'713.9
2017-May-16 03:01N 58°46' E 005°22'714.9
2017-May-16 02:30N 58°39' E 005°24'815.5
2017-May-16 02:00N 58°31' E 005°27'815.2
2017-May-16 01:30N 58°24' E 005°31'815.4
2017-May-16 01:00N 58°16' E 005°33'1616.1
2017-May-16 00:02N 58°00' E 005°34'716.3
2017-May-15 23:38N 57°54' E 005°34'515.9
2017-May-15 23:18N 57°48' E 005°34'816.2
2017-May-15 22:50N 57°41' E 005°34'27117.4
2017-May-15 07:12N 53°18' E 003°37'521.6
2017-May-15 06:57N 53°13' E 003°33'1221.7
2017-May-15 06:25N 53°02' E 003°25'1121.9
2017-May-15 05:55N 52°52' E 003°18'922.1
2017-May-15 05:30N 52°44' E 003°11'1122.3
2017-May-15 05:00N 52°34' E 003°03'1122.3
2017-May-15 04:30N 52°24' E 002°54'1122.6
2017-May-15 04:00N 52°14' E 002°47'1121.9
2017-May-15 03:30N 52°04' E 002°42'1221.8
2017-May-15 02:57N 51°52' E 002°39'1022.1
2017-May-15 02:30N 51°43' E 002°32'  
Track history (hours):
 
Tides and Currents Weather Stations Pressure Air Temp Water Temp Dewpoint Dewpoint Depression Visibility Wind Speed Wind Dir Waves Ship Positions

Norwegian Jade

Last reported at 2017-May-25 02:30 UTC. Time now 2017-May-25 02:57 UTC.
Position N 50°50' W 006°45'.

Length 294 m; draft 8.5 m.

Type: Passenger vessel. MMSI: 308416000.

Date/timePositionNaut miles runAvg speedWind from/ knotsBaromVisibWave heightAir tempDewpointWater temp
2017-May-25 02:30N 50°50' W 006°45'1320.6
2017-May-25 01:51N 50°41' W 006°29'820.7
2017-May-25 01:28N 50°36' W 006°20'1020.5
2017-May-25 01:00N 50°30' W 006°08'1019.8
2017-May-25 00:30N 50°23' W 005°57'1019.9
2017-May-25 00:00N 50°13' W 005°54'1020.5
2017-May-24 23:30N 50°03' W 005°53'1017.7
2017-May-24 22:58N 49°57' W 005°41'1020.2
2017-May-24 22:29N 49°56' W 005°27'1021.2
2017-May-24 22:00N 49°54' W 005°11'1020.7
2017-May-24 21:30N 49°54' W 004°55'1121.1
2017-May-24 21:00N 49°55' W 004°39'1121.9
2017-May-24 20:30N 49°56' W 004°22'1121.5
2017-May-24 20:00N 49°58' W 004°05'1020.8
2017-May-24 19:30N 49°59' W 003°49'1020.1
2017-May-24 19:00N 50°05' W 003°36'1019.7
2017-May-24 18:30N 50°08' W 003°22'1019.4
2017-May-24 18:00N 50°11' W 003°07'918.9
2017-May-24 17:30N 50°16' W 002°55'917.5
2017-May-24 17:00N 50°20' W 002°43'816.5
2017-May-24 16:30N 50°25' W 002°32'816.0
2017-May-24 16:00N 50°31' W 002°25'4 8.4
2017-May-24 15:31N 50°35' W 002°25'1 2.4
2017-May-24 14:56N 50°34' W 002°26'0 0.0
2017-May-24 14:26N 50°34' W 002°26'0 0.0
2017-May-24 13:29N 50°34' W 002°26'0 0.0
2017-May-24 12:59N 50°34' W 002°26'0 0.0
2017-May-24 12:29N 50°34' W 002°26'0 0.0
2017-May-24 11:59N 50°34' W 002°26'0 0.0
2017-May-24 11:29N 50°34' W 002°26'0 0.0
2017-May-24 10:56N 50°34' W 002°26'0 0.0
2017-May-24 10:29N 50°34' W 002°26'0 0.0
2017-May-24 09:59N 50°34' W 002°26'0 0.0
2017-May-24 09:29N 50°34' W 002°26'0 0.0
2017-May-24 08:59N 50°34' W 002°26'0 0.0
2017-May-24 08:29N 50°34' W 002°26'0 0.0
2017-May-24 07:59N 50°34' W 002°26'0 0.0
2017-May-24 07:26N 50°34' W 002°26'0 0.0
2017-May-24 06:59N 50°34' W 002°26'0 0.0
2017-May-24 06:29N 50°34' W 002°26'0 0.0
2017-May-24 05:59N 50°34' W 002°26'0 0.0
2017-May-24 05:29N 50°34' W 002°26'0 0.3
2017-May-24 05:01N 50°34' W 002°26'3 5.4
2017-May-24 04:30N 50°35' W 002°22'4 6.9
2017-May-24 03:57N 50°32' W 002°19'6 7.2
2017-May-24 03:05N 50°26' W 002°16'1 7.3
2017-May-24 03:00N 50°25' W 002°16'9 7.5
2017-May-24 01:47N 50°16' W 002°13'4 7.4
2017-May-24 01:19N 50°13' W 002°13'4 7.2
2017-May-24 00:41N 50°08' W 002°12'50 7.5
2017-May-23 18:00N 49°18' W 002°18'12 1.0 270 / 91027.0 0.0 17.0 13.0
2017-May-23 06:12N 49°27' W 002°30'211.6
2017-May-23 06:00N 49°25' W 002°29'5 9.3
2017-May-23 05:30N 49°22' W 002°23'11 8.7
2017-May-23 04:13N 49°30' W 002°11'310.0
2017-May-23 03:56N 49°33' W 002°10'6 9.7
2017-May-23 03:21N 49°39' W 002°07'3 9.4
2017-May-23 02:59N 49°42' W 002°06'4 9.0
2017-May-23 02:30N 49°45' W 002°01'4 8.7
2017-May-23 02:00N 49°47' W 001°56'4 8.4
2017-May-23 01:30N 49°49' W 001°50'4 8.8
2017-May-23 01:00N 49°52' W 001°44'5 9.2
2017-May-23 00:30N 49°55' W 001°39'5 9.3
2017-May-23 00:00N 49°59' W 001°36'5 9.2
2017-May-22 23:30N 50°03' W 001°34'5 9.1
2017-May-22 23:00N 50°08' W 001°31'7 9.0
2017-May-22 22:14N 50°14' W 001°28'3 9.4
2017-May-22 21:56N 50°17' W 001°26'4 9.3
2017-May-22 21:30N 50°21' W 001°24'5 9.3
2017-May-22 21:00N 50°24' W 001°19'5 9.6
2017-May-22 20:30N 50°27' W 001°13'5 9.4
2017-May-22 20:00N 50°29' W 001°07'5 9.3
2017-May-22 19:30N 50°32' W 001°01'4 8.9
2017-May-22 19:00N 50°36' W 000°59'5 9.4
2017-May-22 18:30N 50°41' W 000°58'611.1
2017-May-22 18:00N 50°44' W 001°05'2156.4
2017-May-22 18:00N 50°42' W 001°06'815.7 200 / 191017.0 17.0 15.0
2017-May-22 17:30N 50°46' W 001°16'4 8.6
2017-May-22 17:00N 50°50' W 001°19'4 8.5
2017-May-22 16:30N 50°53' W 001°24'1 2.2
2017-May-22 16:00N 50°54' W 001°25'0 0.0
2017-May-22 15:30N 50°54' W 001°25'0 0.0
2017-May-22 15:00N 50°54' W 001°25'0 0.0
2017-May-22 14:00N 50°54' W 001°25'0 0.0
2017-May-22 13:30N 50°54' W 001°25'0 0.0
2017-May-22 13:00N 50°54' W 001°25'0 0.0
2017-May-22 12:30N 50°54' W 001°25'0 0.0
2017-May-22 12:00N 50°54' W 001°25'0 0.0
2017-May-22 11:30N 50°54' W 001°25'0 0.0
2017-May-22 11:00N 50°54' W 001°25'0 0.0
2017-May-22 10:30N 50°54' W 001°25'0 0.0
2017-May-22 10:00N 50°54' W 001°25'0 0.0
2017-May-22 09:30N 50°54' W 001°25'0 0.0
2017-May-22 09:00N 50°54' W 001°25'0 0.0
2017-May-22 08:30N 50°54' W 001°25'0 0.0
2017-May-22 08:00N 50°54' W 001°25'0 0.0
2017-May-22 07:30N 50°54' W 001°25'0 0.0
2017-May-22 07:00N 50°54' W 001°25'0 0.0
2017-May-22 06:30N 50°54' W 001°25'0 0.0
2017-May-22 05:54N 50°54' W 001°25'0 0.0
2017-May-22 05:30N 50°54' W 001°25'0 0.1
2017-May-22 05:00N 50°54' W 001°25'2 4.7
2017-May-22 04:31N 50°52' W 001°23'5 9.9
2017-May-22 04:00N 50°48' W 001°18'5 9.1
2017-May-22 03:31N 50°46' W 001°11'917.1
2017-May-22 03:00N 50°43' W 000°59'714.3
2017-May-22 02:30N 50°38' W 000°51'1020.4
2017-May-22 02:00N 50°34' W 000°36'1121.8
2017-May-22 01:30N 50°33' W 000°19'1121.7
2017-May-22 01:00N 50°32' W 000°02'1122.1
2017-May-22 00:30N 50°35' E 000°15'1122.2
2017-May-22 00:00N 50°38' E 000°32'1121.6
2017-May-21 23:30N 50°44' E 000°47'1121.0
2017-May-21 23:00N 50°50' E 001°00'1020.6
2017-May-21 22:30N 50°57' E 001°12'1019.9
2017-May-21 22:00N 51°03' E 001°24'1019.4
2017-May-21 21:30N 51°09' E 001°36'1019.2
2017-May-21 21:00N 51°16' E 001°47'1020.0
2017-May-21 20:30N 51°25' E 001°55'1020.5
2017-May-21 20:01N 51°33' E 002°05'1020.5
2017-May-21 19:30N 51°40' E 002°18'1221.2
2017-May-21 18:56N 51°50' E 002°29'2221.0
2017-May-21 17:53N 52°11' E 002°37'922.5
2017-May-21 17:29N 52°20' E 002°38'1122.5
2017-May-21 17:00N 52°31' E 002°38'1122.3
2017-May-21 16:30N 52°42' E 002°38'1122.1
2017-May-21 16:00N 52°53' E 002°38'1121.8
2017-May-21 15:30N 53°04' E 002°39'1121.1
2017-May-21 15:00N 53°14' E 002°43'1120.9
2017-May-21 14:28N 53°25' E 002°50'27620.8
2017-May-21 01:12N 57°58' E 003°53'1720.3
2017-May-21 00:22N 58°15' E 003°55'821.9
2017-May-21 00:00N 58°23' E 003°56'1422.6
2017-May-20 23:23N 58°37' E 003°57'1122.0
2017-May-20 22:54N 58°48' E 003°58'1122.0
2017-May-20 22:25N 58°58' E 003°60'1122.5
2017-May-20 21:57N 59°09' E 004°00'8621.8
2017-May-20 18:01N 60°34' E 004°22'022.6
2017-May-20 18:00N 60°35' E 004°23'1121.2
2017-May-20 17:30N 60°43' E 004°35'713.9
2017-May-20 17:00N 60°42' E 004°49'918.0
2017-May-20 16:30N 60°34' E 004°55'1019.7
2017-May-20 16:00N 60°25' E 005°04'510.8
2017-May-20 15:30N 60°24' E 005°15'2 4.3
2017-May-20 14:59N 60°24' E 005°19'0 0.0
2017-May-20 13:59N 60°24' E 005°19'0 0.0
2017-May-20 13:29N 60°24' E 005°19'0 0.0
2017-May-20 12:59N 60°24' E 005°19'0 0.0
2017-May-20 12:29N 60°24' E 005°19'0 0.0
2017-May-20 11:59N 60°24' E 005°19'0 0.0
2017-May-20 11:29N 60°24' E 005°19'0 0.0
2017-May-20 10:59N 60°24' E 005°19'0 0.0
2017-May-20 10:29N 60°24' E 005°19'0 0.0
2017-May-20 09:59N 60°24' E 005°19'0 0.0
2017-May-20 09:29N 60°24' E 005°19'0 0.0
2017-May-20 08:59N 60°24' E 005°19'0 0.0
2017-May-20 08:29N 60°24' E 005°19'0 0.0
2017-May-20 07:59N 60°24' E 005°19'0 0.0
2017-May-20 07:29N 60°24' E 005°19'0 0.0
2017-May-20 06:59N 60°24' E 005°19'0 0.0
2017-May-20 06:29N 60°24' E 005°19'1 2.4
2017-May-20 06:00N 60°24' E 005°17'5 9.6
2017-May-20 05:30N 60°24' E 005°07'815.3
2017-May-20 05:00N 60°30' E 004°58'917.5
2017-May-20 04:30N 60°39' E 004°52'714.2
2017-May-20 04:00N 60°44' E 004°43'612.1
2017-May-20 03:30N 60°47' E 004°31'713.9
2017-May-20 02:59N 60°53' E 004°24'714.6
2017-May-20 02:30N 60°59' E 004°18'3815.0
2017-May-20 00:00N 61°36' E 004°00'4716.8 020 / 181016.0 5.4 12.0 10.0
2017-May-19 21:11N 62°19' E 004°41'420.8
2017-May-19 21:00N 62°21' E 004°47'1020.7
2017-May-19 20:30N 62°24' E 005°09'1020.8
2017-May-19 20:00N 62°28' E 005°30'918.8
2017-May-19 19:30N 62°28' E 005°50'713.4
2017-May-19 19:00N 62°25' E 006°03'815.7
2017-May-19 18:30N 62°24' E 006°19'917.9
2017-May-19 18:00N 62°27' E 006°38'816.2
2017-May-19 17:29N 62°25' E 006°55'816.5
2017-May-19 17:00N 62°17' E 007°01'11930.2
2017-May-19 17:00N 62°06' E 007°00'3 6.3 040 / 141016.010.8 19.0 11.0
2017-May-19 16:29N 62°09' E 006°59'4 8.7
2017-May-19 16:00N 62°06' E 007°05'3 6.7
2017-May-19 15:30N 62°06' E 007°12'0 0.0
2017-May-19 14:58N 62°06' E 007°12'0 0.0
2017-May-19 13:58N 62°06' E 007°12'0 0.0
2017-May-19 13:28N 62°06' E 007°12'0 0.0
2017-May-19 12:58N 62°06' E 007°12'0 0.0
2017-May-19 12:28N 62°06' E 007°12'0 0.0
2017-May-19 11:58N 62°06' E 007°12'0 0.0
2017-May-19 11:28N 62°06' E 007°12'0 0.0
2017-May-19 10:58N 62°06' E 007°12'0 0.0
2017-May-19 10:28N 62°06' E 007°12'0 0.0
2017-May-19 09:58N 62°06' E 007°12'0 0.0
2017-May-19 09:28N 62°06' E 007°12'0 0.0
2017-May-19 08:58N 62°06' E 007°12'0 0.0
2017-May-19 08:28N 62°06' E 007°12'0 0.0
2017-May-19 07:58N 62°06' E 007°12'0 0.0
2017-May-19 07:28N 62°06' E 007°12'0 0.0
2017-May-19 06:58N 62°06' E 007°12'0 0.0
2017-May-19 06:28N 62°06' E 007°12'0 0.0
2017-May-19 05:58N 62°06' E 007°12'0 0.0
2017-May-19 05:30N 62°06' E 007°12'0 0.0
2017-May-19 05:00N 62°06' E 007°12'0 0.1
2017-May-19 04:30N 62°06' E 007°12'2 3.7
2017-May-19 04:00N 62°07' E 007°08'5 9.4
2017-May-19 03:30N 62°06' E 006°58'3 5.4
2017-May-19 03:00N 62°09' E 006°59'3 6.1
2017-May-19 02:30N 62°12' E 007°02'3 6.5
2017-May-19 02:00N 62°15' E 007°01'3 6.3
2017-May-19 01:30N 62°18' E 006°60'3 6.4
2017-May-19 01:00N 62°21' E 006°56'3 6.4
2017-May-19 00:30N 62°24' E 006°56'3 6.0
2017-May-19 00:00N 62°26' E 006°52'3 6.5
2017-May-18 23:30N 62°27' E 006°45'3 6.2
2017-May-18 22:59N 62°27' E 006°38'3 6.5
2017-May-18 22:30N 62°26' E 006°32'3 6.5
2017-May-18 22:00N 62°24' E 006°25'3 6.3
2017-May-18 21:30N 62°23' E 006°19'3 6.3
2017-May-18 21:00N 62°23' E 006°12'3 6.2
2017-May-18 20:30N 62°23' E 006°06'3 6.4
2017-May-18 20:00N 62°26' E 006°02'3 5.5
2017-May-18 19:30N 62°27' E 006°07'2 3.0
2017-May-18 18:59N 62°28' E 006°09'0 0.0
2017-May-18 18:29N 62°28' E 006°09'0 0.0
2017-May-18 17:59N 62°28' E 006°09'0 0.0
2017-May-18 17:29N 62°28' E 006°09'0 0.0
2017-May-18 16:53N 62°28' E 006°09'0 0.0
2017-May-18 16:29N 62°28' E 006°09'0 0.0
2017-May-18 15:59N 62°28' E 006°09'0 0.0
2017-May-18 15:29N 62°28' E 006°09'0 0.0
2017-May-18 14:59N 62°28' E 006°09'0 0.0
2017-May-18 13:59N 62°28' E 006°09'0 0.0
2017-May-18 13:29N 62°28' E 006°09'0 0.0
2017-May-18 12:59N 62°28' E 006°09'0 0.0
2017-May-18 12:29N 62°28' E 006°09'0 0.0
2017-May-18 11:59N 62°28' E 006°09'0 0.0
2017-May-18 11:29N 62°28' E 006°09'0 0.0
2017-May-18 10:59N 62°28' E 006°09'0 0.0
2017-May-18 10:26N 62°28' E 006°09'0 0.0
2017-May-18 09:59N 62°28' E 006°09'0 0.0
2017-May-18 09:29N 62°28' E 006°09'0 0.0
2017-May-18 08:59N 62°28' E 006°09'0 0.0
2017-May-18 08:29N 62°28' E 006°09'0 0.0
2017-May-18 07:59N 62°28' E 006°09'0 0.0
2017-May-18 07:29N 62°28' E 006°09'0 0.0
2017-May-18 06:59N 62°28' E 006°09'0 0.0
2017-May-18 06:29N 62°28' E 006°09'0 0.0
2017-May-18 05:59N 62°28' E 006°09'0 0.7
2017-May-18 05:20N 62°28' E 006°10'2 4.6
2017-May-18 05:00N 62°27' E 006°08'815.7
2017-May-18 04:30N 62°28' E 005°51'816.9
2017-May-18 03:59N 62°30' E 005°33'917.7
2017-May-18 03:30N 62°26' E 005°17'816.9
2017-May-18 03:00N 62°20' E 005°04'816.7
2017-May-18 02:30N 62°13' E 004°55'917.0
2017-May-18 02:00N 62°06' E 004°46'816.7
2017-May-18 01:30N 61°58' E 004°38'917.2
2017-May-18 01:00N 61°50' E 004°33'917.8
2017-May-18 00:30N 61°42' E 004°25'917.8
2017-May-18 00:00N 61°33' E 004°24'9678.8
2017-May-18 00:00N 61°24' E 004°24'0 0.4 130 / 171013.0 5.4 10.0 10.0
2017-May-17 23:30N 61°24' E 004°24'816.7
2017-May-17 23:00N 61°16' E 004°30'816.6
2017-May-17 22:30N 61°15' E 004°47'714.4
2017-May-17 22:00N 61°12' E 005°01'611.5
2017-May-17 21:30N 61°08' E 005°09'816.7
2017-May-17 21:00N 61°03' E 005°24'816.5
2017-May-17 20:30N 61°07' E 005°40'816.7
2017-May-17 20:00N 61°08' E 005°57'817.0
2017-May-17 19:30N 61°07' E 006°14'1014.0
2017-May-17 18:46N 61°10' E 006°35'310.3
2017-May-17 18:30N 61°11' E 006°40'815.5
2017-May-17 18:00N 61°08' E 006°54'611.3
2017-May-17 17:30N 61°07' E 007°06'816.1
2017-May-17 17:00N 61°09' E 007°22'611.4
2017-May-17 16:30N 61°15' E 007°21'510.3
2017-May-17 16:00N 61°20' E 007°22'714.8
2017-May-17 15:30N 61°27' E 007°30'4 7.2
2017-May-17 15:00N 61°29' E 007°35'0 0.0
2017-May-17 14:00N 61°29' E 007°35'0 0.0
2017-May-17 13:27N 61°29' E 007°35'0 0.0
2017-May-17 13:00N 61°29' E 007°35'0 0.0
2017-May-17 12:30N 61°29' E 007°35'0 0.0
2017-May-17 12:00N 61°29' E 007°35'0 0.0
2017-May-17 11:30N 61°29' E 007°35'0 0.0
2017-May-17 11:00N 61°29' E 007°35'0 0.0
2017-May-17 10:30N 61°29' E 007°35'0 0.0
2017-May-17 10:00N 61°29' E 007°35'0 0.0
2017-May-17 09:30N 61°29' E 007°35'0 0.0
2017-May-17 09:00N 61°29' E 007°35'0 0.0
2017-May-17 07:48N 61°29' E 007°35'0 0.0
2017-May-17 07:30N 61°29' E 007°35'0 0.0
2017-May-17 07:00N 61°29' E 007°35'0 0.0
2017-May-17 06:30N 61°29' E 007°35'0 0.0
2017-May-17 06:00N 61°29' E 007°35'0 0.2
2017-May-17 05:30N 61°29' E 007°35'4 8.1
2017-May-17 05:00N 61°26' E 007°29'714.3
2017-May-17 04:30N 61°20' E 007°21'510.6
2017-May-17 04:00N 61°15' E 007°21'611.4
2017-May-17 03:31N 61°09' E 007°21'712.8
2017-May-17 03:00N 61°08' E 007°08'611.7
2017-May-17 02:30N 61°07' E 006°56'713.8
2017-May-17 02:00N 61°10' E 006°44'712.9
2017-May-17 01:30N 61°07' E 006°32'715.0
2017-May-17 01:00N 61°07' E 006°16'815.8
2017-May-17 00:30N 61°08' E 006°00'815.5
2017-May-17 00:00N 61°08' E 005°44'815.8
2017-May-16 23:30N 61°04' E 005°30'714.4
2017-May-16 23:00N 61°05' E 005°15'815.2
2017-May-16 22:30N 61°03' E 004°59'816.8
2017-May-16 22:00N 60°59' E 004°45'918.1
2017-May-16 21:30N 60°51' E 004°35'917.8
2017-May-16 21:00N 60°43' E 004°26'1020.9
2017-May-16 20:30N 60°33' E 004°26'1020.8
2017-May-16 20:00N 60°23' E 004°26'4723.3
2017-May-16 18:00N 59°36' E 004°36'2516.8 160 / 241018.0 5.4 11.410.614.0
2017-May-16 16:29N 59°11' E 004°48'1020.7
2017-May-16 16:00N 59°05' E 005°03'918.4
2017-May-16 15:30N 59°06' E 005°21'612.2
2017-May-16 15:00N 59°05' E 005°33'9 8.5
2017-May-16 14:00N 58°58' E 005°44'0 0.0
2017-May-16 13:30N 58°58' E 005°44'0 0.0
2017-May-16 13:00N 58°58' E 005°44'0 0.0
2017-May-16 12:30N 58°58' E 005°44'0 0.0
2017-May-16 12:00N 58°58' E 005°44'0 0.0
2017-May-16 11:30N 58°58' E 005°44'0 0.0
2017-May-16 11:00N 58°58' E 005°44'0 0.0
2017-May-16 10:30N 58°58' E 005°44'0 0.0
2017-May-16 10:00N 58°58' E 005°44'0 0.0
2017-May-16 09:30N 58°58' E 005°44'0 0.0
2017-May-16 09:00N 58°58' E 005°44'0 0.0
2017-May-16 08:30N 58°58' E 005°44'0 0.0
2017-May-16 08:00N 58°58' E 005°44'0 0.0
2017-May-16 07:30N 58°58' E 005°44'0 0.0
2017-May-16 07:00N 58°58' E 005°44'0 0.0
2017-May-16 06:30N 58°58' E 005°44'0 0.0
2017-May-16 06:00N 58°58' E 005°44'0 0.0
2017-May-16 05:30N 58°58' E 005°44'0 1.0
2017-May-16 05:00N 58°59' E 005°43'5 9.9
2017-May-16 04:30N 59°02' E 005°36'5 9.5
2017-May-16 04:01N 58°58' E 005°33'713.9
2017-May-16 03:30N 58°51' E 005°30'713.9
2017-May-16 03:01N 58°46' E 005°22'714.9
2017-May-16 02:30N 58°39' E 005°24'815.5
2017-May-16 02:00N 58°31' E 005°27'815.2
2017-May-16 01:30N 58°24' E 005°31'815.4
2017-May-16 01:00N 58°16' E 005°33'1616.1
2017-May-16 00:02N 58°00' E 005°34'716.3
2017-May-15 23:38N 57°54' E 005°34'515.9
2017-May-15 23:18N 57°48' E 005°34'816.2
2017-May-15 22:50N 57°41' E 005°34'27117.4
2017-May-15 07:12N 53°18' E 003°37'521.6
2017-May-15 06:57N 53°13' E 003°33'1221.7
2017-May-15 06:25N 53°02' E 003°25'1121.9
2017-May-15 05:55N 52°52' E 003°18'922.1
2017-May-15 05:30N 52°44' E 003°11'1122.3
2017-May-15 05:00N 52°34' E 003°03'1122.3
2017-May-15 04:30N 52°24' E 002°54'1122.6
2017-May-15 04:00N 52°14' E 002°47'1121.9
2017-May-15 03:30N 52°04' E 002°42'1221.8
2017-May-15 02:57N 51°52' E 002°39'1022.1
2017-May-15 02:30N 51°43' E 002°32'  

Dump ship's entire track history